Millenium Air

Millenium Air Since 1998



 METAR AND TAF INFORMATION
METAR FOR ENBO
ADDS - METARS form results

(0530 UTC 18 April 2021)
Data provider http://aviationweather.gov/metar/data/
 
METAR text: ENBO 180520Z 10014KT CAVOK 05/M01 Q1031
Conditions at: ENBO (BODO VI (CIV/MIL, NO) observed 0520 UTC 18 April 2021
Temperature: 5.0°C (41°F)
Dewpoint: -1.0°C (30°F) [RH = 65%]
Pressure (altimeter): 30.44 inches Hg (1031.0 mb)
Winds: from the E (100 degrees) at 16 MPH (14 knots; 7.2 m/s)
Visibility: 6 or more miles (10+ km)
Ceiling: ceiling and visibility are OK
Clouds: unknown
Weather: no significant weather observed at this time

METAR text: ENBO 180450Z 11013KT CAVOK 04/M02 Q1031
Conditions at: ENBO (BODO VI (CIV/MIL, NO) observed 0450 UTC 18 April 2021
Temperature: 4.0°C (39°F)
Dewpoint: -2.0°C (28°F) [RH = 65%]
Pressure (altimeter): 30.44 inches Hg (1031.0 mb)
Winds: from the ESE (110 degrees) at 15 MPH (13 knots; 6.7 m/s)
Visibility: 6 or more miles (10+ km)
Ceiling: ceiling and visibility are OK
Clouds: unknown
Weather: no significant weather observed at this time

Forecast for: ENBO (BODO VI (CIV/MIL, NO)
Text: TAF ENBO 1800/1824 10010KT CAVOK
Forecast period: 0000 to 1300 UTC 18 April 2021
Forecast type: FROM: standard forecast or significant change
Winds: from the E (100 degrees) at 12 MPH (10 knots; 5.1 m/s)
Visibility: 6 or more miles (10+ km)
Ceiling: unknown
Clouds: missing
Weather: NSW  (no significant weather)
Text: BECMG 1813/1815 30005KT
Forecast period: 1300 to 1900 UTC 18 April 2021
Forecast type: BECOMING: Conditions expected to become as follows by 1500 UTC 18 April 2021
Winds: from the WNW (300 degrees) at 6 MPH (5 knots; 2.6 m/s)
Visibility: 6 or more miles (10+ km)
Ceiling: unknown
Clouds: missing
Weather: NSW  (no significant weather)
Text: BECMG 1819/1821 10010KT
Forecast period: 1900 UTC 18 April 2021 to 0000 UTC 19 April 2021
Forecast type: BECOMING: Conditions expected to become as follows by 2100 UTC 18 April 2021
Winds: from the E (100 degrees) at 12 MPH (10 knots; 5.1 m/s)
Visibility: 6 or more miles (10+ km)
Ceiling: unknown
Clouds: missing
Weather: NSW  (no significant weather)

 AIRPORT MAP

 RUNWAY INFORMATION
Runway 07 Runway length 11136 ft Runway width 148 ft
Runway elevation 17 ft Runway displaced threshold 1969 ft Runway heading 78
Runway 25 Runway length 11136 ft Runway width 148 ft
Runway elevation 39 ft Runway displaced threshold 0 ft Runway heading 258

 AIRPORT FREQUENCIES
Type A/D Name APP/DEP Frequency 119.7 MHZ
Type ATIS Name ATIS Frequency 123.9 MHZ
Type TWR Name TWR Frequency 118.1 MHZ

 AIRPORT NEAR NAVIGATION AIDS
Type VOR-DME Name Bodo Frequency 117200 KHZ
Type TACAN Name Bodo Frequency 110800 KHZ
Type NDB Name Fleinvaer Frequency 374 KHZ
Type NDB Name Fauske Frequency 326 KHZ
Type NDB Name Stott Frequency 317 KHZ